createdAt,value
2023-02-22T00:01:35.478Z,4.78
2023-02-22T00:04:42.067Z,4.39
2023-02-22T00:07:50.837Z,4.02
2023-02-22T00:10:53.533Z,3.76
2023-02-22T00:13:59.116Z,3.73
2023-02-22T00:17:02.561Z,3.70
2023-02-22T00:20:08.461Z,4.06
2023-02-22T00:23:20.963Z,3.77
2023-02-22T00:26:23.850Z,4.00
2023-02-22T00:29:26.808Z,4.38
2023-02-22T00:32:29.685Z,5.00
2023-02-22T00:35:34.125Z,5.10
2023-02-22T00:38:37.393Z,5.36
2023-02-22T00:41:40.208Z,5.03
2023-02-22T00:44:43.200Z,4.71
2023-02-22T00:47:48.805Z,4.63
2023-02-22T00:50:55.222Z,4.42
2023-02-22T00:54:08.788Z,4.24
2023-02-22T00:57:12.442Z,4.48
2023-02-22T01:00:42.936Z,4.25
2023-02-22T01:03:47.697Z,4.22
2023-02-22T01:06:54.423Z,4.22
2023-02-22T01:09:57.747Z,4.61
2023-02-22T01:13:01.409Z,4.57
2023-02-22T01:16:11.567Z,4.12
2023-02-22T01:19:14.407Z,4.30
2023-02-22T01:22:17.092Z,4.44
2023-02-22T01:25:23.020Z,4.64
2023-02-22T01:28:25.592Z,4.93
2023-02-22T01:31:28.235Z,5.10
2023-02-22T01:34:33.942Z,5.20
2023-02-22T01:37:37.852Z,5.27
2023-02-22T01:40:48.179Z,5.22
2023-02-22T01:43:50.825Z,5.17
2023-02-22T01:46:55.784Z,4.94
2023-02-22T01:50:04.416Z,4.75
2023-02-22T01:53:15.135Z,4.60
2023-02-22T01:56:19.106Z,4.50
2023-02-22T01:59:22.203Z,4.13
2023-02-22T02:02:25.538Z,4.19
2023-02-22T02:05:31.912Z,3.88
2023-02-22T02:08:53.443Z,3.76
2023-02-22T02:11:56.819Z,3.56
2023-02-22T02:15:21.213Z,3.79
2023-02-22T02:18:24.885Z,3.89
2023-02-22T02:21:55.884Z,3.66
2023-02-22T02:25:05.314Z,3.52
2023-02-22T02:28:39.556Z,3.45
2023-02-22T02:32:16.075Z,3.21
2023-02-22T02:35:56.088Z,3.10
2023-02-22T02:39:16.957Z,2.90
2023-02-22T02:42:24.762Z,2.88
2023-02-22T02:45:45.778Z,2.89
2023-02-22T02:48:57.018Z,2.76
2023-02-22T02:52:02.909Z,2.57
2023-02-22T02:55:09.315Z,2.56
2023-02-22T02:58:21.203Z,2.22
2023-02-22T03:01:54.303Z,2.09
2023-02-22T03:05:20.132Z,1.95
2023-02-22T03:08:43.355Z,1.70
2023-02-22T03:11:53.537Z,1.62
2023-02-22T03:15:26.663Z,1.53
2023-02-22T03:18:48.051Z,1.51
2023-02-22T03:22:28.268Z,1.41
2023-02-22T03:25:37.583Z,1.68
2023-02-22T03:28:42.845Z,2.07
2023-02-22T03:31:53.704Z,2.34
2023-02-22T03:35:09.833Z,2.23
2023-02-22T03:38:15.721Z,2.55
2023-02-22T03:41:24.193Z,2.53
2023-02-22T03:44:32.352Z,2.63
2023-02-22T03:47:42.918Z,2.66
2023-02-22T03:50:45.836Z,2.52
2023-02-22T03:53:52.351Z,2.66
2023-02-22T03:57:18.250Z,2.79
2023-02-22T04:00:25.364Z,2.69
2023-02-22T04:03:27.979Z,2.56
2023-02-22T04:06:31.263Z,2.43
2023-02-22T04:09:38.157Z,2.17
2023-02-22T04:12:43.942Z,2.14
2023-02-22T04:15:46.610Z,2.16
2023-02-22T04:18:51.287Z,2.10
2023-02-22T04:21:55.872Z,2.03
2023-02-22T04:25:01.189Z,1.93
2023-02-22T04:28:04.207Z,1.76
2023-02-22T04:31:14.254Z,1.62
2023-02-22T04:34:17.244Z,1.75
2023-02-22T04:37:20.118Z,2.06
2023-02-22T04:40:22.859Z,1.99
2023-02-22T04:43:25.644Z,1.93
2023-02-22T04:46:32.944Z,1.80
2023-02-22T04:49:38.052Z,1.75
2023-02-22T04:52:41.586Z,1.84
2023-02-22T04:55:49.626Z,1.66
2023-02-22T04:58:52.990Z,1.77
2023-02-22T05:01:55.648Z,2.36
2023-02-22T05:04:58.324Z,2.52
2023-02-22T05:08:01.078Z,2.41
2023-02-22T05:11:05.239Z,2.49
2023-02-22T05:14:07.969Z,2.43
2023-02-22T05:17:13.581Z,2.71
2023-02-22T05:20:36.796Z,2.89
2023-02-22T05:23:39.555Z,2.93
2023-02-22T05:26:45.624Z,2.83
2023-02-22T05:29:48.191Z,2.89
2023-02-22T05:32:52.360Z,2.70
2023-02-22T05:35:58.015Z,2.79
2023-02-22T05:39:00.641Z,2.92
2023-02-22T05:42:04.853Z,2.92
2023-02-22T05:45:19.094Z,2.87
2023-02-22T05:48:22.697Z,2.73
2023-02-22T05:51:27.779Z,2.74
2023-02-22T05:54:30.292Z,2.39
2023-02-22T05:57:32.786Z,2.19
2023-02-22T06:00:40.705Z,2.21
2023-02-22T06:03:43.308Z,2.42
2023-02-22T06:06:46.007Z,2.42
2023-02-22T06:09:51.719Z,2.38
2023-02-22T06:12:55.347Z,2.48
2023-02-22T06:16:00.045Z,2.70
2023-02-22T06:19:03.015Z,2.88
2023-02-22T06:22:05.614Z,2.88
2023-02-22T06:25:09.710Z,3.01
2023-02-22T06:28:12.304Z,2.95
2023-02-22T06:31:15.718Z,2.88
2023-02-22T06:34:18.975Z,3.07
2023-02-22T06:37:22.017Z,3.12
2023-02-22T06:40:29.527Z,2.99
2023-02-22T06:43:32.217Z,2.81
2023-02-22T06:46:35.265Z,2.56
2023-02-22T06:49:37.896Z,2.57
2023-02-22T06:52:48.043Z,2.42
2023-02-22T06:55:53.296Z,2.51
2023-02-22T06:59:23.666Z,2.36
2023-02-22T07:02:34.809Z,2.44
2023-02-22T07:05:38.437Z,2.54
2023-02-22T07:08:50.710Z,2.75
2023-02-22T07:11:58.910Z,3.21
2023-02-22T07:15:01.779Z,3.43
2023-02-22T07:18:05.014Z,3.66
2023-02-22T07:21:10.858Z,3.77
2023-02-22T07:24:13.462Z,3.92
2023-02-22T07:27:16.118Z,4.32
2023-02-22T07:30:25.476Z,4.67
2023-02-22T07:33:29.495Z,5.07
2023-02-22T07:36:32.125Z,5.41
2023-02-22T07:39:42.240Z,5.82
2023-02-22T07:43:14.399Z,6.07
2023-02-22T07:46:17.008Z,6.27
2023-02-22T07:49:19.637Z,6.43
2023-02-22T07:52:22.663Z,6.67
2023-02-22T07:55:28.048Z,6.66
2023-02-22T07:58:31.460Z,6.96
2023-02-22T08:01:35.287Z,7.12
2023-02-22T08:04:42.631Z,7.27
2023-02-22T08:07:45.379Z,7.41
2023-02-22T08:10:49.706Z,7.50
2023-02-22T08:13:52.441Z,7.63
2023-02-22T08:16:54.997Z,7.87
2023-02-22T08:19:58.304Z,7.96
2023-02-22T08:23:01.750Z,8.20
2023-02-22T08:26:09.581Z,8.62
2023-02-22T08:29:14.850Z,9.00
2023-02-22T08:32:19.676Z,9.40
2023-02-22T08:35:23.311Z,9.68
2023-02-22T08:38:29.788Z,9.97
2023-02-22T08:41:35.260Z,10.03
2023-02-22T08:44:39.223Z,10.27
2023-02-22T08:47:42.170Z,10.40
2023-02-22T08:50:44.806Z,10.59
2023-02-22T08:53:47.458Z,10.64
2023-02-22T08:56:50.276Z,10.75
2023-02-22T08:59:53.544Z,10.88
2023-02-22T09:02:56.291Z,10.79
2023-02-22T09:05:59.767Z,10.97
2023-02-22T09:09:05.113Z,11.11
2023-02-22T09:12:07.999Z,11.20
2023-02-22T09:15:11.596Z,11.35
2023-02-22T09:18:14.840Z,11.56
2023-02-22T09:21:20.663Z,11.69
2023-02-22T09:24:23.418Z,11.74
2023-02-22T09:27:28.386Z,11.85
2023-02-22T09:30:38.520Z,11.95
2023-02-22T09:33:42.044Z,11.76
2023-02-22T09:36:48.221Z,11.71
2023-02-22T09:39:51.464Z,11.54
2023-02-22T09:43:02.416Z,11.45
2023-02-22T09:50:22.569Z,11.59
2023-02-22T09:53:42.284Z,11.65
2023-02-22T09:56:48.892Z,11.58
2023-02-22T10:00:16.173Z,11.59
2023-02-22T10:03:47.599Z,11.62
2023-02-22T10:07:20.655Z,11.96
2023-02-22T10:10:34.200Z,12.43
2023-02-22T10:13:55.655Z,12.38
2023-02-22T10:17:19.849Z,12.84
2023-02-22T10:21:02.523Z,13.02
2023-02-22T10:24:31.240Z,13.34
2023-02-22T10:27:41.092Z,13.43
2023-02-22T10:30:54.806Z,13.68
2023-02-22T10:34:07.428Z,13.79
2023-02-22T10:37:33.994Z,13.95
2023-02-22T10:40:45.268Z,13.67
2023-02-22T10:43:47.837Z,13.96
2023-02-22T10:46:53.560Z,13.53
2023-02-22T10:49:58.781Z,13.48
2023-02-22T10:53:01.318Z,13.47
2023-02-22T10:56:19.172Z,13.23
2023-02-22T10:59:28.190Z,13.09
2023-02-22T11:02:36.029Z,13.15
2023-02-22T11:05:40.889Z,12.91
2023-02-22T11:08:43.800Z,13.05
2023-02-22T11:11:48.258Z,13.19
2023-02-22T11:14:53.712Z,13.08
2023-02-22T11:18:02.159Z,13.41
2023-02-22T11:21:10.373Z,13.69
2023-02-22T11:24:14.671Z,13.69
2023-02-22T11:27:40.366Z,13.53
2023-02-22T11:30:44.741Z,13.54
2023-02-22T11:33:58.782Z,13.38
2023-02-22T11:37:30.904Z,13.63
2023-02-22T11:40:35.717Z,13.87
2023-02-22T11:43:38.336Z,14.04
2023-02-22T11:46:44.967Z,14.08
2023-02-22T11:49:55.651Z,14.33
2023-02-22T11:53:18.152Z,14.65
2023-02-22T11:56:37.782Z,14.59
2023-02-22T12:00:16.441Z,14.75
2023-02-22T12:04:09.486Z,14.85
2023-02-22T12:07:22.589Z,14.62
2023-02-22T12:10:58.847Z,15.03
2023-02-22T12:14:08.984Z,15.52
2023-02-22T12:17:23.921Z,15.81
2023-02-22T12:20:40.175Z,16.10
2023-02-22T12:24:39.157Z,16.28
2023-02-22T12:27:50.011Z,16.41
2023-02-22T12:31:12.311Z,16.58
2023-02-22T12:34:36.737Z,16.55
2023-02-22T12:38:01.023Z,16.20
2023-02-22T12:41:27.086Z,16.47
2023-02-22T12:44:37.162Z,16.21
2023-02-22T12:48:18.759Z,16.22
2023-02-22T12:51:36.775Z,16.36
2023-02-22T12:54:59.525Z,16.04
2023-02-22T12:58:46.939Z,15.97
2023-02-22T13:02:04.005Z,15.97
2023-02-22T13:05:18.156Z,16.18
2023-02-22T13:08:29.512Z,16.07
2023-02-22T13:11:46.841Z,16.06
2023-02-22T13:15:43.564Z,15.71
2023-02-22T13:19:18.131Z,15.65
2023-02-22T13:22:46.893Z,15.48
2023-02-22T13:25:58.991Z,15.39
2023-02-22T13:29:30.178Z,15.19
2023-02-22T13:32:56.301Z,15.09
2023-02-22T13:36:31.372Z,15.04
2023-02-22T13:39:56.541Z,15.08
2023-02-22T13:43:43.797Z,15.06
2023-02-22T13:47:06.786Z,15.03
2023-02-22T13:50:32.516Z,14.98
2023-02-22T13:53:55.533Z,15.19
2023-02-22T13:57:03.348Z,15.45
2023-02-22T14:00:15.153Z,15.41
2023-02-22T14:03:50.593Z,15.56
2023-02-22T14:06:57.471Z,15.63
2023-02-22T14:10:03.073Z,15.57
2023-02-22T14:13:07.897Z,15.43
2023-02-22T14:16:13.138Z,15.17
2023-02-22T14:19:24.206Z,14.95
2023-02-22T14:22:33.719Z,15.00
2023-02-22T14:25:46.166Z,15.14
2023-02-22T14:28:54.599Z,15.03
2023-02-22T14:32:21.155Z,15.12
2023-02-22T14:35:54.001Z,14.61
2023-02-22T14:39:24.476Z,15.09
2023-02-22T14:42:34.929Z,15.10
2023-02-22T14:45:45.620Z,15.44
2023-02-22T14:48:52.921Z,15.18
2023-02-22T14:52:04.136Z,15.69
2023-02-22T14:55:22.298Z,16.28
2023-02-22T14:58:32.302Z,16.68
2023-02-22T15:01:52.733Z,16.94
2023-02-22T15:04:58.198Z,17.12
2023-02-22T15:08:03.294Z,16.77
2023-02-22T15:11:08.311Z,16.93
2023-02-22T15:14:27.058Z,17.46
2023-02-22T15:17:29.827Z,17.15
2023-02-22T15:20:36.936Z,17.17
2023-02-22T15:23:54.597Z,16.54
2023-02-22T15:27:06.091Z,16.14
2023-02-22T15:30:17.819Z,16.44
2023-02-22T15:33:27.007Z,16.11
2023-02-22T15:36:32.385Z,15.63
2023-02-22T15:39:34.931Z,14.95
2023-02-22T15:42:48.786Z,15.02
2023-02-22T15:45:52.257Z,15.11
2023-02-22T15:49:29.065Z,14.06
2023-02-22T15:52:34.507Z,13.19
2023-02-22T15:55:43.188Z,12.32
2023-02-22T15:58:47.731Z,11.89
2023-02-22T16:01:53.471Z,11.57
2023-02-22T16:05:06.764Z,10.98
2023-02-22T16:08:45.806Z,10.84
2023-02-22T16:12:29.953Z,10.41
2023-02-22T16:15:33.447Z,10.17
2023-02-22T16:18:38.718Z,10.02
2023-02-22T16:22:03.023Z,9.76
2023-02-22T16:25:25.304Z,9.62
2023-02-22T16:28:31.042Z,9.54
2023-02-22T16:31:38.539Z,9.24
2023-02-22T16:34:43.570Z,9.05
2023-02-22T16:37:48.864Z,8.78
2023-02-22T16:40:58.331Z,8.75
2023-02-22T16:44:02.318Z,8.79
2023-02-22T16:47:05.005Z,8.69
2023-02-22T16:50:07.939Z,8.36
2023-02-22T16:53:10.970Z,8.29
2023-02-22T16:56:16.414Z,8.14
2023-02-22T16:59:24.139Z,8.22
2023-02-22T17:02:28.950Z,8.12
2023-02-22T17:05:38.346Z,8.14
2023-02-22T17:08:43.503Z,8.15
2023-02-22T17:11:50.951Z,8.08
2023-02-22T17:14:56.915Z,8.06
2023-02-22T17:18:11.433Z,8.02
2023-02-22T17:21:14.147Z,7.88
2023-02-22T17:24:24.618Z,7.63
2023-02-22T17:27:27.978Z,7.40
2023-02-22T17:30:35.964Z,7.27
2023-02-22T17:33:39.006Z,7.07
2023-02-22T17:36:45.240Z,7.04
2023-02-22T17:39:48.789Z,7.11
2023-02-22T17:42:55.229Z,6.94
2023-02-22T17:45:58.100Z,6.83
2023-02-22T17:49:01.947Z,6.98
2023-02-22T17:52:09.536Z,6.75
2023-02-22T17:55:13.098Z,6.67
2023-02-22T17:58:15.815Z,6.80
2023-02-22T18:01:27.187Z,6.91
2023-02-22T18:04:34.956Z,6.75
2023-02-22T18:07:37.741Z,6.50
2023-02-22T18:10:42.480Z,6.26
2023-02-22T18:13:45.215Z,6.21
2023-02-22T18:16:48.092Z,6.13
2023-02-22T18:19:50.975Z,5.87
2023-02-22T18:22:53.786Z,5.56
2023-02-22T18:26:10.675Z,5.45
2023-02-22T18:29:15.938Z,5.58
2023-02-22T18:32:19.763Z,5.59
2023-02-22T18:35:22.552Z,5.41
2023-02-22T18:38:25.745Z,5.14
2023-02-22T18:41:31.486Z,4.93
2023-02-22T18:44:34.284Z,4.75
2023-02-22T18:47:44.182Z,4.66
2023-02-22T18:50:46.942Z,4.61
2023-02-22T18:53:50.240Z,4.55
2023-02-22T18:56:52.981Z,4.54
2023-02-22T18:59:59.845Z,4.75
2023-02-22T19:03:02.421Z,4.43
2023-02-22T19:06:10.530Z,4.30
2023-02-22T19:09:14.280Z,4.37
2023-02-22T19:12:18.984Z,4.30
2023-02-22T19:15:21.882Z,4.17
2023-02-22T19:18:25.164Z,4.07
2023-02-22T19:21:30.001Z,4.24
2023-02-22T19:24:39.946Z,4.11
2023-02-22T19:27:44.484Z,4.06
2023-02-22T19:30:47.438Z,4.31
2023-02-22T19:33:55.346Z,4.26
2023-02-22T19:37:00.808Z,3.98
2023-02-22T19:40:07.077Z,3.85
2023-02-22T19:43:11.536Z,3.79
2023-02-22T19:46:17.961Z,4.04
2023-02-22T19:49:20.826Z,3.88
2023-02-22T19:52:23.599Z,3.83
2023-02-22T19:55:32.392Z,3.83
2023-02-22T19:58:39.495Z,3.80
2023-02-22T20:01:44.569Z,3.80
2023-02-22T20:04:50.210Z,3.91
2023-02-22T20:07:52.933Z,3.60
2023-02-22T20:10:58.623Z,3.37
2023-02-22T20:14:02.018Z,3.74
2023-02-22T20:17:07.110Z,3.52
2023-02-22T20:20:10.122Z,3.68
2023-02-22T20:23:12.953Z,3.38
2023-02-22T20:26:18.039Z,3.22
2023-02-22T20:29:26.508Z,3.07
2023-02-22T20:32:31.850Z,3.15
2023-02-22T20:35:34.683Z,3.20
2023-02-22T20:38:37.997Z,3.41
2023-02-22T20:41:43.313Z,3.26
2023-02-22T20:44:46.078Z,3.21
2023-02-22T20:47:51.987Z,3.18
2023-02-22T20:50:54.765Z,3.08
2023-02-22T20:54:00.166Z,2.93
2023-02-22T20:57:06.807Z,2.84
2023-02-22T21:00:10.695Z,2.82
2023-02-22T21:03:13.606Z,2.93
2023-02-22T21:06:18.654Z,3.05
2023-02-22T21:09:21.824Z,2.93
2023-02-22T21:12:24.694Z,2.67
2023-02-22T21:15:27.514Z,2.74
2023-02-22T21:18:30.314Z,2.73
2023-02-22T21:21:36.390Z,2.72
2023-02-22T21:24:39.474Z,2.82
2023-02-22T21:27:43.295Z,2.67
2023-02-22T21:30:47.456Z,2.62
2023-02-22T21:33:52.162Z,2.58
2023-02-22T21:36:54.946Z,2.45
2023-02-22T21:40:00.808Z,2.40
2023-02-22T21:43:03.589Z,2.30
2023-02-22T21:46:08.046Z,2.31
2023-02-22T21:49:11.438Z,2.39
2023-02-22T21:52:14.336Z,2.38
2023-02-22T21:55:19.378Z,2.37
2023-02-22T21:58:22.648Z,2.32
2023-02-22T22:01:29.938Z,2.38
2023-02-22T22:04:35.108Z,2.35
2023-02-22T22:07:37.650Z,2.21
2023-02-22T22:10:40.255Z,2.27
2023-02-22T22:13:46.124Z,2.19
2023-02-22T22:16:59.550Z,2.29
2023-02-22T22:20:04.610Z,2.21
2023-02-22T22:23:10.031Z,1.97
2023-02-22T22:26:14.566Z,1.63
2023-02-22T22:29:18.771Z,1.84
2023-02-22T22:32:21.681Z,1.84
2023-02-22T22:35:29.699Z,1.61
2023-02-22T22:38:33.592Z,1.66
2023-02-22T22:41:36.658Z,1.51
2023-02-22T22:44:42.374Z,1.45
2023-02-22T22:47:46.186Z,1.46
2023-02-22T22:51:06.699Z,1.40
2023-02-22T22:54:10.488Z,1.42
2023-02-22T22:57:13.264Z,1.61
2023-02-22T23:00:31.308Z,1.66
2023-02-22T23:03:36.985Z,1.49
2023-02-22T23:06:55.225Z,1.40
2023-02-22T23:09:57.879Z,1.43
2023-02-22T23:13:00.412Z,1.41
2023-02-22T23:16:03.169Z,1.51
2023-02-22T23:19:08.077Z,1.52
2023-02-22T23:22:17.630Z,1.44
2023-02-22T23:25:21.906Z,1.50
2023-02-22T23:28:24.537Z,1.24
2023-02-22T23:31:32.105Z,1.16
2023-02-22T23:34:36.058Z,1.03
2023-02-22T23:37:39.982Z,0.88
2023-02-22T23:40:44.857Z,0.93
2023-02-22T23:43:47.487Z,0.94
2023-02-22T23:46:55.491Z,0.93
2023-02-22T23:49:59.073Z,1.04
2023-02-22T23:53:03.811Z,1.00
2023-02-22T23:56:17.959Z,0.99
2023-02-22T23:59:20.534Z,0.89
